Time;durP1;ratioP1;P1;durP2;ratioP2;P2;SDS_P1;SDS_P2;PMS_P1;PMS_P2;Temp;Humidity;BMP_temperature;BMP_pressure;BME280_temperature;BME280_humidity;BME280_pressure;Samples;Min_cycle;Max_cycle;Signal;HPM_P1;HPM_P2
2023/03/02 00:00:27;;;;;;;23.48;14.55;;;;;;;;;;5051728;28;20104;-73
2023/03/02 00:02:53;;;;;;;29.42;15.43;;;;;;;;;;5052147;28;20020;-72
2023/03/02 00:05:19;;;;;;;27.20;15.23;;;;;;;;;;5052586;28;20096;-72
2023/03/02 00:07:45;;;;;;;30.20;14.32;;;;;;;;;;5055337;28;20113;-71
2023/03/02 00:10:11;;;;;;;25.67;14.60;;;;;;;;;;5066395;28;20039;-71
2023/03/02 00:12:37;;;;;;;24.75;14.65;;;;;;;;;;5053751;28;20025;-72
2023/03/02 00:15:03;;;;;;;23.80;14.10;;;;;;;;;;5051341;28;20402;-71
2023/03/02 00:17:29;;;;;;;28.05;13.93;;;;;;;;;;5051435;28;20028;-72
2023/03/02 00:20:10;;;;;;;34.90;13.00;;;;;;;;;;5051430;28;20382;-72
2023/03/02 00:22:40;;;;;;;24.48;14.20;;;;;;;;;;5051011;28;20363;-73
2023/03/02 00:25:06;;;;;;;33.08;15.18;;;;;;;;;;5051463;28;20043;-72
2023/03/02 00:27:32;;;;;;;25.95;14.45;;;;;;;;;;5051473;28;20033;-71
2023/03/02 00:29:58;;;;;;;26.92;14.60;;;;;;;;;;5051196;28;20013;-70
2023/03/02 00:32:24;;;;;;;24.17;14.70;;;;;;;;;;5050914;28;20036;-71
2023/03/02 00:34:50;;;;;;;23.38;13.68;;;;;;;;;;5051052;28;20036;-71
2023/03/02 00:37:16;;;;;;;20.67;11.88;;;;;;;;;;5051069;28;20033;-71
2023/03/02 00:39:42;;;;;;;18.17;11.07;;;;;;;;;;5051259;28;20029;-71
2023/03/02 00:42:08;;;;;;;18.35;11.13;;;;;;;;;;5050916;28;20376;-72
2023/03/02 00:44:34;;;;;;;25.65;11.65;;;;;;;;;;5051101;28;20044;-74
2023/03/02 00:47:00;;;;;;;20.45;12.57;;;;;;;;;;5050781;28;20043;-72
2023/03/02 00:49:27;;;;;;;18.20;11.88;;;;;;;;;;5050885;28;20040;-71
2023/03/02 00:51:53;;;;;;;17.63;11.68;;;;;;;;;;5050736;28;20382;-73
2023/03/02 00:54:19;;;;;;;18.83;12.20;;;;;;;;;;5051064;28;20013;-72
2023/03/02 00:56:45;;;;;;;25.00;11.20;;;;;;;;;;5050972;28;20028;-71
2023/03/02 00:59:27;;;;;;;22.90;11.90;;;;;;;;;;5050718;28;20418;-72
2023/03/02 01:01:59;;;;;;;17.08;11.10;;;;;;;;;;5044464;28;20028;-73
2023/03/02 01:04:28;;;;;;;20.02;11.55;;;;;;;;;;5050328;28;20401;-72
2023/03/02 01:06:55;;;;;;;22.88;12.50;;;;;;;;;;5050627;28;20017;-72
2023/03/02 01:09:21;;;;;;;19.67;11.40;;;;;;;;;;5050265;28;20446;-72
2023/03/02 01:11:46;;;;;;;22.63;12.20;;;;;;;;;;5051031;28;20021;-73
2023/03/02 01:14:13;;;;;;;19.55;12.15;;;;;;;;;;5050932;28;20158;-72
2023/03/02 01:16:39;;;;;;;19.23;11.70;;;;;;;;;;5050858;28;20434;-72
2023/03/02 01:19:05;;;;;;;21.23;11.52;;;;;;;;;;5050768;28;20039;-73
2023/03/02 01:21:31;;;;;;;26.83;12.48;;;;;;;;;;5051540;28;20045;-72
2023/03/02 01:23:57;;;;;;;25.67;12.52;;;;;;;;;;5050689;28;20040;-72
2023/03/02 01:26:23;;;;;;;26.50;12.38;;;;;;;;;;5050448;28;20433;-72
2023/03/02 01:28:54;;;;;;;23.80;12.27;;;;;;;;;;5050599;28;20199;-71
2023/03/02 01:31:20;;;;;;;27.27;13.02;;;;;;;;;;5050440;28;20517;-72
2023/03/02 01:33:46;;;;;;;22.67;12.80;;;;;;;;;;5050933;28;20037;-72
2023/03/02 01:36:11;;;;;;;21.30;12.00;;;;;;;;;;5051489;28;20021;-72
2023/03/02 01:38:37;;;;;;;23.20;12.68;;;;;;;;;;5051602;28;20024;-72
2023/03/02 01:44:27;;;;;;;28.63;13.15;;;;;;;;;;5051431;28;20398;-73
2023/03/02 01:46:53;;;;;;;22.02;13.52;;;;;;;;;;5051198;28;20397;-72
2023/03/02 01:49:19;;;;;;;22.33;14.23;;;;;;;;;;5051413;28;20021;-73
2023/03/02 01:51:46;;;;;;;24.83;14.05;;;;;;;;;;5051120;28;20029;-72
2023/03/02 01:54:16;;;;;;;25.17;15.35;;;;;;;;;;5051311;28;20475;-72
2023/03/02 01:56:43;;;;;;;25.92;15.80;;;;;;;;;;5051303;28;20123;-72
2023/03/02 01:59:11;;;;;;;25.40;15.48;;;;;;;;;;5051446;28;20025;-72
2023/03/02 02:01:38;;;;;;;26.13;14.98;;;;;;;;;;5051501;28;20433;-72
2023/03/02 02:04:06;;;;;;;24.10;15.27;;;;;;;;;;5052194;28;20386;-72
2023/03/02 02:06:34;;;;;;;25.38;15.93;;;;;;;;;;5052829;28;20029;-72
2023/03/02 02:09:01;;;;;;;23.58;15.15;;;;;;;;;;5052538;28;20079;-71
2023/03/02 02:11:27;;;;;;;38.35;16.27;;;;;;;;;;5051204;28;20028;-72
2023/03/02 02:13:55;;;;;;;30.58;15.88;;;;;;;;;;5051015;28;20027;-72
2023/03/02 02:16:21;;;;;;;34.47;15.13;;;;;;;;;;5050974;28;20029;-72
2023/03/02 02:18:47;;;;;;;22.77;14.68;;;;;;;;;;5051063;28;20032;-73
2023/03/02 02:21:14;;;;;;;26.17;15.77;;;;;;;;;;5051221;28;20063;-72
2023/03/02 02:23:44;;;;;;;24.50;15.27;;;;;;;;;;5054445;28;20025;-72
2023/03/02 02:26:17;;;;;;;25.73;15.27;;;;;;;;;;5054491;28;20017;-73
2023/03/02 02:28:43;;;;;;;28.73;16.23;;;;;;;;;;5054470;28;20017;-72
2023/03/02 02:31:21;;;;;;;29.30;15.73;;;;;;;;;;5054434;28;20497;-72
2023/03/02 02:33:52;;;;;;;25.17;14.52;;;;;;;;;;5054237;28;20016;-72
2023/03/02 02:36:20;;;;;;;26.63;15.77;;;;;;;;;;5054460;28;20032;-71
2023/03/02 02:38:47;;;;;;;23.55;15.10;;;;;;;;;;5053356;28;20490;-69
2023/03/02 02:41:18;;;;;;;25.10;15.70;;;;;;;;;;5054164;28;20021;-71
2023/03/02 02:43:44;;;;;;;25.60;15.82;;;;;;;;;;5053923;28;20482;-72
2023/03/02 02:46:11;;;;;;;26.77;16.25;;;;;;;;;;5054222;28;20032;-73
2023/03/02 02:48:37;;;;;;;26.10;16.17;;;;;;;;;;5054246;28;20534;-71
2023/03/02 02:51:06;;;;;;;27.80;16.55;;;;;;;;;;5054174;28;20100;-72
2023/03/02 02:53:37;;;;;;;28.35;17.25;;;;;;;;;;5053723;28;20113;-73
2023/03/02 02:56:04;;;;;;;27.75;15.60;;;;;;;;;;5053966;28;20099;-72
2023/03/02 02:58:33;;;;;;;30.90;16.17;;;;;;;;;;5054008;28;20120;-71
2023/03/02 03:00:59;;;;;;;25.77;15.55;;;;;;;;;;5053962;28;20122;-71
2023/03/02 03:03:30;;;;;;;28.85;17.02;;;;;;;;;;5053577;28;20028;-71
2023/03/02 03:06:00;;;;;;;24.77;15.27;;;;;;;;;;5053720;28;20510;-71
2023/03/02 03:08:51;;;;;;;29.83;15.77;;;;;;;;;;5053775;28;20390;-71
2023/03/02 03:11:18;;;;;;;24.08;14.82;;;;;;;;;;5053937;28;20021;-72
2023/03/02 03:13:45;;;;;;;37.00;16.35;;;;;;;;;;5053500;28;20112;-71
2023/03/02 03:16:14;;;;;;;25.10;15.02;;;;;;;;;;5053597;28;20032;-71
2023/03/02 03:18:43;;;;;;;31.95;15.80;;;;;;;;;;5053607;28;20025;-71
2023/03/02 03:21:09;;;;;;;26.00;15.60;;;;;;;;;;5053815;28;20033;-72
2023/03/02 03:23:37;;;;;;;28.20;14.73;;;;;;;;;;5053455;28;20029;-71
2023/03/02 03:26:03;;;;;;;25.05;15.18;;;;;;;;;;5053510;28;20025;-70
2023/03/02 03:28:29;;;;;;;28.83;15.95;;;;;;;;;;5054192;28;20025;-72
2023/03/02 03:30:55;;;;;;;26.60;15.07;;;;;;;;;;5053489;28;20487;-72
2023/03/02 03:33:21;;;;;;;27.83;14.73;;;;;;;;;;5053195;28;20029;-74
2023/03/02 03:35:47;;;;;;;25.98;15.45;;;;;;;;;;5054256;28;20096;-72
2023/03/02 03:38:13;;;;;;;30.67;15.57;;;;;;;;;;5053193;28;20147;-72
2023/03/02 03:40:39;;;;;;;37.00;15.50;;;;;;;;;;5053170;28;20025;-72
2023/03/02 03:43:05;;;;;;;30.83;16.73;;;;;;;;;;5053066;28;20536;-72
2023/03/02 03:45:31;;;;;;;62.30;17.17;;;;;;;;;;5052831;28;20040;-72
2023/03/02 03:47:57;;;;;;;45.47;17.83;;;;;;;;;;5052723;28;20021;-73
2023/03/02 03:50:23;;;;;;;31.70;17.20;;;;;;;;;;5044576;28;20083;-74
2023/03/02 03:52:49;;;;;;;29.48;17.10;;;;;;;;;;5052633;28;20051;-73
2023/03/02 03:55:16;;;;;;;25.77;16.27;;;;;;;;;;5053236;28;20052;-73
2023/03/02 03:57:42;;;;;;;35.35;16.02;;;;;;;;;;5054865;28;20025;-75
2023/03/02 04:00:09;;;;;;;33.17;16.08;;;;;;;;;;5056228;28;20029;-73
2023/03/02 04:02:36;;;;;;;32.67;15.52;;;;;;;;;;5053941;28;20025;-73
2023/03/02 04:05:05;;;;;;;45.28;16.08;;;;;;;;;;5054723;28;20056;-73
2023/03/02 04:07:34;;;;;;;29.73;15.65;;;;;;;;;;5055313;28;20028;-74
2023/03/02 04:10:04;;;;;;;26.65;16.00;;;;;;;;;;5054208;28;20146;-72
2023/03/02 04:12:34;;;;;;;30.55;16.33;;;;;;;;;;5054289;28;20032;-72
2023/03/02 04:15:00;;;;;;;26.90;16.67;;;;;;;;;;5054093;28;20021;-72
2023/03/02 04:17:26;;;;;;;27.65;16.35;;;;;;;;;;5053052;28;20029;-72
2023/03/02 04:19:52;;;;;;;28.63;16.63;;;;;;;;;;5052534;28;20021;-72
2023/03/02 04:22:18;;;;;;;25.98;15.82;;;;;;;;;;5051981;28;20028;-72
2023/03/02 04:24:45;;;;;;;25.65;15.18;;;;;;;;;;5052241;28;20104;-71
2023/03/02 04:27:11;;;;;;;26.92;15.90;;;;;;;;;;5052091;28;20091;-73
2023/03/02 04:29:37;;;;;;;29.40;16.13;;;;;;;;;;5051997;28;20111;-73
2023/03/02 04:32:03;;;;;;;27.17;16.02;;;;;;;;;;5051875;28;20486;-72
2023/03/02 04:34:29;;;;;;;31.67;15.93;;;;;;;;;;5052147;28;20417;-72
2023/03/02 04:36:55;;;;;;;31.52;17.80;;;;;;;;;;5051886;28;20038;-71
2023/03/02 04:39:22;;;;;;;28.55;16.55;;;;;;;;;;5051895;28;20032;-72
2023/03/02 04:41:48;;;;;;;27.75;16.45;;;;;;;;;;5052206;28;20037;-71
2023/03/02 04:44:15;;;;;;;29.63;17.27;;;;;;;;;;5049308;28;20037;-71
2023/03/02 04:46:41;;;;;;;30.25;16.73;;;;;;;;;;5050530;28;20128;-71
2023/03/02 04:49:07;;;;;;;42.67;17.55;;;;;;;;;;5049373;28;20017;-70
2023/03/02 04:51:35;;;;;;;38.97;17.67;;;;;;;;;;5050538;28;20029;-71
2023/03/02 04:54:03;;;;;;;28.38;16.38;;;;;;;;;;5050694;28;20398;-72
2023/03/02 04:56:29;;;;;;;26.30;15.38;;;;;;;;;;5050718;28;20025;-71
2023/03/02 04:58:55;;;;;;;25.73;15.75;;;;;;;;;;5050209;28;20363;-71
2023/03/02 05:01:21;;;;;;;31.23;16.90;;;;;;;;;;5050649;28;20844;-73
2023/03/02 05:03:48;;;;;;;27.42;16.42;;;;;;;;;;5050391;28;20114;-73
2023/03/02 05:06:15;;;;;;;38.67;16.73;;;;;;;;;;5050579;28;20040;-74
2023/03/02 05:08:40;;;;;;;27.15;16.65;;;;;;;;;;5050679;28;20025;-73
2023/03/02 05:11:07;;;;;;;27.33;15.40;;;;;;;;;;5050508;28;20052;-73
2023/03/02 05:13:33;;;;;;;28.25;16.13;;;;;;;;;;5050609;28;20029;-73
2023/03/02 05:16:00;;;;;;;27.80;16.38;;;;;;;;;;5050543;28;20512;-74
2023/03/02 05:18:26;;;;;;;29.17;17.08;;;;;;;;;;5050597;28;20021;-73
2023/03/02 05:20:53;;;;;;;32.80;18.02;;;;;;;;;;5050417;28;20471;-72
2023/03/02 05:23:22;;;;;;;67.55;18.55;;;;;;;;;;5049946;28;20058;-74
2023/03/02 05:25:49;;;;;;;30.70;17.33;;;;;;;;;;5050043;28;20036;-72
2023/03/02 05:28:16;;;;;;;31.10;17.90;;;;;;;;;;5050669;28;20139;-72
2023/03/02 05:30:42;;;;;;;35.67;18.40;;;;;;;;;;5050478;28;20032;-72
2023/03/02 05:33:08;;;;;;;33.17;19.60;;;;;;;;;;5050267;28;20412;-72
2023/03/02 05:35:34;;;;;;;30.35;18.10;;;;;;;;;;5050623;28;20068;-73
2023/03/02 05:38:00;;;;;;;32.28;17.52;;;;;;;;;;5049816;28;20029;-72
2023/03/02 05:40:26;;;;;;;38.47;18.67;;;;;;;;;;5050473;28;20487;-73
2023/03/02 05:42:52;;;;;;;31.05;18.42;;;;;;;;;;5050234;28;20158;-76
2023/03/02 05:45:24;;;;;;;33.92;17.85;;;;;;;;;;5050127;28;20040;-72
2023/03/02 05:47:50;;;;;;;32.75;18.45;;;;;;;;;;5050240;28;20110;-72
2023/03/02 05:50:17;;;;;;;32.28;18.95;;;;;;;;;;5049481;28;20050;-72
2023/03/02 05:52:44;;;;;;;33.50;18.48;;;;;;;;;;5049535;28;20398;-72
2023/03/02 05:55:10;;;;;;;41.97;18.65;;;;;;;;;;5047860;28;20036;-73
2023/03/02 05:57:36;;;;;;;42.78;19.27;;;;;;;;;;5053794;28;20471;-73
2023/03/02 06:00:03;;;;;;;33.65;18.40;;;;;;;;;;5053995;28;20025;-72
2023/03/02 06:02:29;;;;;;;42.47;18.95;;;;;;;;;;5052191;28;20131;-72
2023/03/02 06:04:55;;;;;;;43.58;19.45;;;;;;;;;;5054171;28;20086;-72
2023/03/02 06:07:21;;;;;;;44.05;19.88;;;;;;;;;;5054118;28;20462;-73
2023/03/02 06:09:48;;;;;;;36.42;20.67;;;;;;;;;;5053643;28;20063;-73
2023/03/02 06:12:14;;;;;;;36.20;20.65;;;;;;;;;;5053498;28;20013;-74
2023/03/02 06:14:40;;;;;;;38.75;21.20;;;;;;;;;;5053766;28;20051;-73
2023/03/02 06:17:06;;;;;;;43.95;20.70;;;;;;;;;;5053344;28;20033;-72
2023/03/02 06:19:32;;;;;;;46.60;20.55;;;;;;;;;;5053607;28;20100;-73
2023/03/02 06:21:58;;;;;;;40.08;20.75;;;;;;;;;;5053293;28;20025;-73
2023/03/02 06:24:24;;;;;;;42.65;20.50;;;;;;;;;;5051199;28;20524;-72
2023/03/02 06:26:52;;;;;;;44.35;22.38;;;;;;;;;;5053217;28;20040;-72
2023/03/02 06:29:18;;;;;;;41.15;21.05;;;;;;;;;;5052754;28;20120;-75
2023/03/02 06:31:44;;;;;;;36.63;19.52;;;;;;;;;;5050974;28;20698;-73
2023/03/02 06:34:10;;;;;;;52.40;18.50;;;;;;;;;;5055005;28;20024;-72
2023/03/02 06:36:37;;;;;;;38.17;18.52;;;;;;;;;;5051485;28;20025;-73
2023/03/02 06:39:04;;;;;;;36.65;20.02;;;;;;;;;;5050797;28;20029;-72
2023/03/02 06:41:29;;;;;;;39.92;20.52;;;;;;;;;;5051734;28;20410;-75
2023/03/02 06:43:55;;;;;;;34.25;17.15;;;;;;;;;;5046546;28;20025;-77
2023/03/02 06:46:21;;;;;;;37.28;18.65;;;;;;;;;;5045466;28;20406;-75
2023/03/02 06:48:47;;;;;;;35.33;18.92;;;;;;;;;;5051520;28;20054;-75
2023/03/02 06:51:13;;;;;;;50.88;20.30;;;;;;;;;;5053446;28;20454;-75
2023/03/02 06:53:39;;;;;;;31.60;17.38;;;;;;;;;;5053233;28;20025;-76
2023/03/02 06:56:06;;;;;;;33.25;17.27;;;;;;;;;;5053266;28;20032;-77
2023/03/02 06:58:32;;;;;;;41.25;18.63;;;;;;;;;;5053002;28;20032;-74
2023/03/02 07:00:58;;;;;;;34.53;18.55;;;;;;;;;;5058655;28;20478;-74
2023/03/02 07:03:24;;;;;;;36.97;19.58;;;;;;;;;;5053544;28;20032;-75
2023/03/02 07:05:51;;;;;;;34.42;18.17;;;;;;;;;;5045751;28;20032;-73
2023/03/02 07:08:17;;;;;;;33.58;17.67;;;;;;;;;;5054595;28;20509;-72
2023/03/02 07:10:43;;;;;;;99.78;32.80;;;;;;;;;;5055189;28;20025;-74
2023/03/02 07:13:09;;;;;;;41.15;19.83;;;;;;;;;;5054778;28;20120;-74
2023/03/02 07:15:35;;;;;;;65.38;20.23;;;;;;;;;;5055959;28;20029;-74
2023/03/02 07:18:01;;;;;;;50.33;19.88;;;;;;;;;;5053901;28;20036;-72
2023/03/02 07:20:27;;;;;;;40.53;18.98;;;;;;;;;;5055033;28;20138;-72
2023/03/02 07:22:53;;;;;;;37.33;19.90;;;;;;;;;;5054417;28;20029;-72
2023/03/02 07:25:18;;;;;;;34.00;19.13;;;;;;;;;;5051055;28;20072;-72
2023/03/02 07:27:44;;;;;;;40.60;19.80;;;;;;;;;;5052044;28;20056;-73
2023/03/02 07:30:11;;;;;;;35.75;19.67;;;;;;;;;;5051832;28;20401;-72
2023/03/02 07:32:37;;;;;;;34.75;18.65;;;;;;;;;;5051707;28;20025;-72
2023/03/02 07:35:03;;;;;;;39.40;19.75;;;;;;;;;;5051765;28;20037;-73
2023/03/02 07:37:29;;;;;;;38.47;18.63;;;;;;;;;;5052145;28;20486;-72
2023/03/02 07:39:55;;;;;;;45.92;19.70;;;;;;;;;;5052487;28;20439;-71
2023/03/02 07:42:22;;;;;;;39.78;17.90;;;;;;;;;;5051766;28;20036;-73
2023/03/02 07:44:48;;;;;;;42.88;18.67;;;;;;;;;;5051989;28;20041;-72
2023/03/02 07:47:14;;;;;;;42.08;19.27;;;;;;;;;;5054255;28;20025;-78
2023/03/02 07:49:40;;;;;;;40.45;17.42;;;;;;;;;;5055008;28;20036;-72
2023/03/02 07:52:06;;;;;;;39.20;18.13;;;;;;;;;;5053856;28;20482;-71
2023/03/02 07:54:32;;;;;;;34.67;18.45;;;;;;;;;;5053468;28;20034;-72
2023/03/02 07:56:58;;;;;;;50.50;18.20;;;;;;;;;;5055093;28;20434;-74
2023/03/02 07:59:24;;;;;;;43.75;17.23;;;;;;;;;;5054278;28;20029;-75
2023/03/02 08:01:50;;;;;;;45.03;18.02;;;;;;;;;;5058127;28;20059;-73
2023/03/02 08:04:16;;;;;;;34.72;17.63;;;;;;;;;;5052650;28;20029;-72
2023/03/02 08:06:42;;;;;;;41.72;19.90;;;;;;;;;;5054172;28;20025;-74
2023/03/02 08:09:08;;;;;;;44.65;19.05;;;;;;;;;;5056274;28;20465;-75
2023/03/02 08:11:34;;;;;;;45.28;17.65;;;;;;;;;;5058160;28;20059;-75
2023/03/02 08:14:00;;;;;;;36.08;18.08;;;;;;;;;;5052428;28;20398;-74
2023/03/02 08:16:26;;;;;;;43.67;17.85;;;;;;;;;;5051545;28;20525;-75
2023/03/02 08:18:53;;;;;;;36.42;18.33;;;;;;;;;;5051659;28;20051;-73
2023/03/02 08:21:21;;;;;;;35.42;18.15;;;;;;;;;;5051678;28;20032;-75
2023/03/02 08:23:47;;;;;;;48.35;17.95;;;;;;;;;;5051232;28;20025;-73
2023/03/02 08:26:13;;;;;;;37.25;17.77;;;;;;;;;;5051074;28;20029;-76
2023/03/02 08:28:39;;;;;;;36.72;17.70;;;;;;;;;;5050781;28;20021;-72
2023/03/02 08:31:06;;;;;;;34.45;17.55;;;;;;;;;;5051064;28;20036;-72
2023/03/02 08:33:33;;;;;;;31.20;16.35;;;;;;;;;;5051247;28;20092;-73
2023/03/02 08:36:00;;;;;;;32.75;16.80;;;;;;;;;;5051105;28;20017;-71
2023/03/02 08:38:26;;;;;;;37.97;19.65;;;;;;;;;;5050913;28;20025;-73
2023/03/02 08:40:53;;;;;;;36.80;17.98;;;;;;;;;;5051131;28;20482;-72
2023/03/02 08:43:19;;;;;;;41.47;20.38;;;;;;;;;;5050647;28;20029;-72
2023/03/02 08:45:49;;;;;;;42.50;20.10;;;;;;;;;;5050879;28;20082;-74
2023/03/02 08:48:16;;;;;;;37.90;17.98;;;;;;;;;;5050718;28;20045;-75
2023/03/02 08:50:42;;;;;;;37.72;18.75;;;;;;;;;;5051007;28;20021;-73
2023/03/02 08:53:08;;;;;;;32.70;17.20;;;;;;;;;;5051580;28;20017;-76
2023/03/02 08:55:35;;;;;;;33.63;18.33;;;;;;;;;;5052495;28;20390;-75
2023/03/02 08:58:01;;;;;;;32.92;17.83;;;;;;;;;;5052887;28;20067;-75
2023/03/02 09:00:27;;;;;;;37.08;19.58;;;;;;;;;;5052713;28;20143;-75
2023/03/02 09:02:53;;;;;;;41.35;21.15;;;;;;;;;;5052816;28;20033;-76
2023/03/02 09:05:19;;;;;;;59.13;29.92;;;;;;;;;;5052598;28;20029;-76
2023/03/02 09:07:45;;;;;;;46.83;23.98;;;;;;;;;;5052716;28;20459;-73
2023/03/02 09:10:11;;;;;;;38.40;19.42;;;;;;;;;;5053272;28;20067;-75
2023/03/02 09:12:37;;;;;;;39.55;19.10;;;;;;;;;;5053624;28;20025;-72
2023/03/02 09:15:03;;;;;;;34.50;18.25;;;;;;;;;;5049415;28;20036;-71
2023/03/02 09:17:29;;;;;;;36.92;19.73;;;;;;;;;;5051387;28;20394;-72
2023/03/02 09:19:55;;;;;;;38.00;19.20;;;;;;;;;;5053820;28;20028;-72
2023/03/02 09:22:21;;;;;;;37.55;19.00;;;;;;;;;;5071335;28;20110;-72
2023/03/02 09:24:47;;;;;;;40.13;19.83;;;;;;;;;;5071689;28;20116;-75
2023/03/02 09:27:13;;;;;;;39.20;19.42;;;;;;;;;;5071546;28;20036;-72
2023/03/02 09:29:39;;;;;;;33.75;18.85;;;;;;;;;;5071163;28;20033;-72
2023/03/02 09:32:05;;;;;;;35.83;19.52;;;;;;;;;;5074854;28;20463;-72
2023/03/02 09:34:31;;;;;;;36.20;18.58;;;;;;;;;;5075672;28;20044;-72
2023/03/02 09:36:57;;;;;;;38.58;19.70;;;;;;;;;;5075217;28;20068;-71
2023/03/02 09:39:23;;;;;;;34.05;18.17;;;;;;;;;;5075300;28;20036;-70
2023/03/02 09:41:58;;;;;;;34.88;18.35;;;;;;;;;;5074795;28;20041;-72
2023/03/02 09:44:48;;;;;;;47.03;22.25;;;;;;;;;;5075306;28;20401;-73
2023/03/02 09:47:32;;;;;;;33.58;18.30;;;;;;;;;;5064463;28;20051;-73
2023/03/02 09:50:16;;;;;;;35.00;17.42;;;;;;;;;;5077714;28;20040;-73
2023/03/02 09:52:49;;;;;;;32.78;16.80;;;;;;;;;;5075148;28;20077;-73
2023/03/02 09:55:16;;;;;;;33.05;17.58;;;;;;;;;;5074886;28;20103;-72
2023/03/02 09:57:43;;;;;;;32.60;17.75;;;;;;;;;;5078084;28;20048;-73
2023/03/02 10:00:12;;;;;;;32.15;17.38;;;;;;;;;;5078950;28;20020;-71
2023/03/02 10:03:01;;;;;;;34.90;17.05;;;;;;;;;;5079288;28;20519;-72
2023/03/02 10:05:29;;;;;;;36.42;17.98;;;;;;;;;;5075597;28;20051;-72
2023/03/02 10:07:55;;;;;;;33.72;16.60;;;;;;;;;;5080330;28;20024;-72
2023/03/02 10:10:30;;;;;;;32.50;17.60;;;;;;;;;;5078112;28;20052;-74
2023/03/02 10:13:02;;;;;;;31.27;17.65;;;;;;;;;;5079642;28;20465;-73
2023/03/02 10:15:33;;;;;;;31.80;17.17;;;;;;;;;;5077491;28;20050;-74
2023/03/02 10:18:05;;;;;;;33.47;17.50;;;;;;;;;;5076050;28;20039;-73
2023/03/02 10:20:36;;;;;;;33.00;16.75;;;;;;;;;;5076316;28;20083;-74
2023/03/02 10:23:10;;;;;;;32.83;17.17;;;;;;;;;;5075439;28;20032;-74
2023/03/02 10:25:39;;;;;;;29.15;16.10;;;;;;;;;;5076086;28;20035;-74
2023/03/02 10:28:12;;;;;;;36.50;18.52;;;;;;;;;;5078789;28;20115;-74
2023/03/02 10:30:39;;;;;;;33.45;17.23;;;;;;;;;;5076738;28;20024;-74
2023/03/02 10:33:11;;;;;;;32.72;17.42;;;;;;;;;;5075459;28;20361;-72
2023/03/02 10:35:40;;;;;;;30.67;16.73;;;;;;;;;;5074575;28;20048;-73
2023/03/02 10:38:12;;;;;;;35.63;17.25;;;;;;;;;;5074377;28;20028;-75
2023/03/02 10:40:40;;;;;;;33.45;17.25;;;;;;;;;;5074392;28;20397;-73
2023/03/02 10:43:10;;;;;;;31.40;17.02;;;;;;;;;;5072860;28;20035;-72
2023/03/02 10:45:36;;;;;;;33.33;18.80;;;;;;;;;;5074040;28;20078;-74
2023/03/02 10:48:03;;;;;;;43.67;24.52;;;;;;;;;;5059005;28;20048;-72
2023/03/02 10:50:30;;;;;;;33.80;18.45;;;;;;;;;;5053826;28;20021;-74
2023/03/02 10:52:55;;;;;;;33.38;17.75;;;;;;;;;;5053317;28;20025;-74
2023/03/02 10:55:22;;;;;;;34.55;17.52;;;;;;;;;;5053968;28;20028;-74
2023/03/02 10:57:59;;;;;;;31.55;16.40;;;;;;;;;;5053856;28;20021;-72
2023/03/02 11:00:26;;;;;;;38.08;17.48;;;;;;;;;;5053877;28;20055;-72
2023/03/02 11:02:53;;;;;;;34.40;17.48;;;;;;;;;;5053581;28;20359;-75
2023/03/02 11:05:22;;;;;;;31.92;16.63;;;;;;;;;;5053536;28;20548;-73
2023/03/02 11:08:00;;;;;;;31.02;16.13;;;;;;;;;;5053799;28;20493;-72
2023/03/02 11:10:28;;;;;;;29.25;15.07;;;;;;;;;;5054228;28;20032;-71
2023/03/02 11:12:55;;;;;;;28.20;14.43;;;;;;;;;;5053469;28;20017;-71
2023/03/02 11:15:25;;;;;;;30.48;14.95;;;;;;;;;;5053785;28;20025;-73
2023/03/02 11:17:58;;;;;;;30.13;15.43;;;;;;;;;;5053804;28;20057;-73
2023/03/02 11:20:28;;;;;;;28.35;14.93;;;;;;;;;;5053870;28;20083;-74
2023/03/02 11:23:09;;;;;;;31.73;16.50;;;;;;;;;;5053679;28;20051;-73
2023/03/02 11:25:37;;;;;;;31.40;16.13;;;;;;;;;;5053805;28;20502;-74
2023/03/02 11:28:26;;;;;;;29.88;15.57;;;;;;;;;;5052563;28;20524;-74
2023/03/02 11:30:53;;;;;;;31.10;15.68;;;;;;;;;;5054180;28;20108;-73
2023/03/02 11:33:23;;;;;;;29.45;15.30;;;;;;;;;;5054034;28;20419;-73
2023/03/02 11:35:54;;;;;;;27.38;14.80;;;;;;;;;;5053960;28;20020;-73
2023/03/02 11:38:25;;;;;;;32.40;14.70;;;;;;;;;;5054500;28;20385;-73
2023/03/02 11:41:03;;;;;;;26.77;14.75;;;;;;;;;;5053842;28;20394;-73
2023/03/02 11:43:30;;;;;;;30.85;14.98;;;;;;;;;;5053089;28;20469;-70
2023/03/02 11:46:03;;;;;;;32.75;16.27;;;;;;;;;;5053365;28;20048;-72
2023/03/02 11:48:33;;;;;;;29.88;15.50;;;;;;;;;;5053317;28;20029;-74
2023/03/02 11:51:01;;;;;;;25.23;13.38;;;;;;;;;;5052871;28;20079;-71
2023/03/02 11:53:30;;;;;;;29.45;15.43;;;;;;;;;;5052703;28;20025;-74
2023/03/02 11:55:56;;;;;;;24.80;13.18;;;;;;;;;;5053418;28;20013;-74
2023/03/02 11:58:24;;;;;;;25.92;13.93;;;;;;;;;;5053069;28;20075;-77
2023/03/02 12:00:50;;;;;;;29.75;13.30;;;;;;;;;;5053713;28;20029;-75
2023/03/02 12:03:16;;;;;;;26.95;13.82;;;;;;;;;;5054679;28;20024;-75
2023/03/02 12:05:44;;;;;;;29.27;14.02;;;;;;;;;;5053491;28;20032;-74
2023/03/02 12:08:19;;;;;;;24.83;13.43;;;;;;;;;;5052767;28;20029;-73
2023/03/02 12:11:05;;;;;;;24.48;13.35;;;;;;;;;;5052704;28;20055;-75
2023/03/02 12:13:36;;;;;;;23.80;12.70;;;;;;;;;;5052689;28;20446;-72
2023/03/02 12:16:02;;;;;;;25.25;13.25;;;;;;;;;;5052180;28;20021;-73
2023/03/02 12:18:29;;;;;;;32.47;13.63;;;;;;;;;;5049588;28;20032;-74
2023/03/02 12:20:58;;;;;;;27.13;13.57;;;;;;;;;;5052126;28;20033;-73
2023/03/02 12:23:25;;;;;;;26.92;14.38;;;;;;;;;;5059472;28;20385;-73
2023/03/02 12:26:01;;;;;;;27.30;14.40;;;;;;;;;;5072659;28;20097;-74
2023/03/02 12:28:34;;;;;;;27.02;14.25;;;;;;;;;;5072155;28;20109;-74
2023/03/02 12:31:04;;;;;;;32.17;16.58;;;;;;;;;;5072180;28;20040;-73
2023/03/02 12:33:30;;;;;;;31.27;14.30;;;;;;;;;;5071187;28;20103;-72
2023/03/02 12:36:05;;;;;;;24.60;12.32;;;;;;;;;;5075205;28;20052;-73
2023/03/02 12:38:33;;;;;;;37.45;17.98;;;;;;;;;;5073002;28;20489;-74
2023/03/02 12:41:05;;;;;;;23.35;12.18;;;;;;;;;;5075685;28;20042;-72
2023/03/02 12:43:32;;;;;;;22.27;11.75;;;;;;;;;;5076451;28;20071;-72
2023/03/02 12:46:17;;;;;;;21.67;10.70;;;;;;;;;;5071292;28;20025;-72
2023/03/02 12:48:45;;;;;;;20.75;10.88;;;;;;;;;;5071637;28;20389;-76
2023/03/02 12:51:31;;;;;;;19.98;10.88;;;;;;;;;;5071016;28;20443;-72
2023/03/02 12:54:12;;;;;;;22.48;10.90;;;;;;;;;;5071000;28;20064;-72
2023/03/02 12:56:38;;;;;;;19.98;10.80;;;;;;;;;;5071124;28;20081;-74
2023/03/02 12:59:04;;;;;;;32.80;15.27;;;;;;;;;;5070889;28;20032;-73
2023/03/02 13:01:31;;;;;;;23.73;11.75;;;;;;;;;;5071310;28;20341;-74
2023/03/02 13:03:58;;;;;;;19.60;10.30;;;;;;;;;;5069930;28;20074;-71
2023/03/02 13:06:26;;;;;;;21.42;11.30;;;;;;;;;;5069784;28;20028;-73
2023/03/02 13:08:56;;;;;;;25.15;12.15;;;;;;;;;;5070198;28;20363;-74
2023/03/02 13:11:42;;;;;;;59.70;22.77;;;;;;;;;;5070764;28;20021;-75
2023/03/02 13:14:27;;;;;;;23.45;10.50;;;;;;;;;;5070202;28;20158;-74
2023/03/02 13:16:54;;;;;;;25.88;13.05;;;;;;;;;;5070392;28;20029;-74
2023/03/02 13:19:20;;;;;;;24.67;10.90;;;;;;;;;;5070512;28;20412;-73
2023/03/02 13:21:46;;;;;;;24.52;11.98;;;;;;;;;;5070118;28;20056;-72
2023/03/02 13:24:33;;;;;;;24.63;11.48;;;;;;;;;;5070451;28;20520;-73
2023/03/02 13:27:15;;;;;;;25.30;12.25;;;;;;;;;;5070328;28;20028;-74
2023/03/02 13:29:41;;;;;;;28.50;13.95;;;;;;;;;;5069640;28;20034;-73
2023/03/02 13:32:14;;;;;;;25.20;12.63;;;;;;;;;;5069837;28;20574;-75
2023/03/02 13:34:45;;;;;;;21.98;12.05;;;;;;;;;;5070884;28;20032;-74
2023/03/02 13:37:18;;;;;;;26.95;13.25;;;;;;;;;;5071818;28;20424;-73
2023/03/02 13:39:53;;;;;;;27.63;12.35;;;;;;;;;;5070645;28;20067;-74
2023/03/02 13:42:35;;;;;;;27.70;13.48;;;;;;;;;;5070929;28;20078;-74
2023/03/02 13:45:19;;;;;;;27.08;14.13;;;;;;;;;;5070320;28;20036;-73
2023/03/02 13:47:45;;;;;;;25.88;13.38;;;;;;;;;;5069123;28;20336;-74
2023/03/02 13:50:20;;;;;;;27.30;14.13;;;;;;;;;;5070883;28;20068;-75
2023/03/02 13:52:46;;;;;;;39.03;20.00;;;;;;;;;;5070320;28;20021;-73
2023/03/02 13:55:13;;;;;;;26.60;13.73;;;;;;;;;;5070432;28;20044;-75
2023/03/02 13:57:40;;;;;;;26.63;13.55;;;;;;;;;;5050292;28;20029;-73
2023/03/02 14:00:07;;;;;;;31.13;15.57;;;;;;;;;;5043371;28;20036;-74
2023/03/02 14:02:33;;;;;;;37.80;17.02;;;;;;;;;;5049682;28;20063;-73
2023/03/02 14:04:59;;;;;;;30.95;15.18;;;;;;;;;;5050513;28;20056;-74
2023/03/02 14:07:25;;;;;;;34.08;16.05;;;;;;;;;;5049597;28;20029;-74
2023/03/02 14:09:51;;;;;;;35.33;16.83;;;;;;;;;;5050560;28;20104;-73
2023/03/02 14:12:23;;;;;;;35.10;16.70;;;;;;;;;;5049928;28;20021;-72
2023/03/02 14:14:49;;;;;;;33.67;16.33;;;;;;;;;;5048562;28;20053;-73
2023/03/02 14:17:19;;;;;;;34.30;16.65;;;;;;;;;;5042511;28;20028;-72
2023/03/02 14:19:51;;;;;;;39.88;16.77;;;;;;;;;;5052497;28;20021;-75
2023/03/02 14:22:17;;;;;;;34.38;16.30;;;;;;;;;;5052924;28;20364;-70
2023/03/02 14:24:44;;;;;;;38.97;17.80;;;;;;;;;;5053109;28;20382;-73